map of SDD home
SDD - Airport
Location
City:  Lubango, Huíla, Angola
Near (Alt.):Sa da Bandeira
ICAO:FNUB
IATA:SDD

Details
Type:Airport (Aerodrome, Airfield)
Use:Public/Civil
Latitude:14°55'29"S (-14.924732)
Longitude:13°34'30"E (13.575022)
Datum:WGS 1984
Elevation:5778 ft (1761 m)
Variation:6.16°W (WMM2015v2 magnetic declination)
0.18° annual change
Runways:1
Longest:9570 × 148 ft (2917 × 45 m), paved

Time
Time Zone:UTC+1
Local Time:

Weather
METAR:FNUB 041300Z 15012KT 9999 BKN025 FEW030CB 25/17 Q1025
TAF:FNUB 032245Z 0400/0412 VRB03KT 5000 RADZ BR BKN016 FEW020CB
BECMG 0406/0408 8000 NSW BKN020 PROB30
TEMPO 0408/0412 09008KT 9999 SCT018 BKN025

Related Locations
Nearby:
Farthest:PHHF: 11815 mi / 19014 km
Tern Island [French Frigate Shoals Airport], HI, US

Find:

   beyond  
but within

Other Information
Maps:
NOTAMs:
Links:
Sources:

  
  • flag of Angola
  

Sectional Chart

Flight Planning
at skyvector.com

Satellite Image

Google Maps Satellite view

 

Copyright © 2004-2019 Karl L. Swartz. All rights reserved.
The Great Circle Mapper name and logo are trademarks of the Great Circle Mapper.
All other trademarks mentioned herein belong to their respective owners.
Please see credits for attibutions and further copyright information.

  Follow gcmap on Facebook Follow gcmap on Twitter GCmap on LinkedIn

hCard Microformat

Geo Microformat